sensor_id;sensor_type;location;lat;lon;timestamp;P1;durP1;ratioP1;P2;durP2;ratioP2
1174;SDS011;576;48.418;10.074;2023-09-30T00:00:04;15.13;;;8.73;;
1174;SDS011;576;48.418;10.074;2023-09-30T00:02:38;13.70;;;8.60;;
1174;SDS011;576;48.418;10.074;2023-09-30T00:05:06;17.03;;;9.47;;
1174;SDS011;576;48.418;10.074;2023-09-30T00:07:36;18.10;;;9.10;;
1174;SDS011;576;48.418;10.074;2023-09-30T00:10:08;12.23;;;8.53;;
1174;SDS011;576;48.418;10.074;2023-09-30T00:12:37;13.57;;;9.33;;
1174;SDS011;576;48.418;10.074;2023-09-30T00:15:05;14.03;;;9.13;;
1174;SDS011;576;48.418;10.074;2023-09-30T00:17:34;15.73;;;8.40;;
1174;SDS011;576;48.418;10.074;2023-09-30T00:20:03;12.67;;;7.83;;
1174;SDS011;576;48.418;10.074;2023-09-30T00:22:32;15.07;;;9.07;;
1174;SDS011;576;48.418;10.074;2023-09-30T00:25:00;15.50;;;9.30;;
1174;SDS011;576;48.418;10.074;2023-09-30T00:27:30;13.47;;;8.93;;
1174;SDS011;576;48.418;10.074;2023-09-30T00:29:59;15.37;;;9.43;;
1174;SDS011;576;48.418;10.074;2023-09-30T00:32:30;13.73;;;9.20;;
1174;SDS011;576;48.418;10.074;2023-09-30T00:35:02;15.00;;;9.87;;
1174;SDS011;576;48.418;10.074;2023-09-30T00:37:30;13.43;;;9.20;;
1174;SDS011;576;48.418;10.074;2023-09-30T00:39:59;12.80;;;9.80;;
1174;SDS011;576;48.418;10.074;2023-09-30T00:42:27;14.70;;;8.87;;
1174;SDS011;576;48.418;10.074;2023-09-30T00:44:57;16.43;;;9.10;;
1174;SDS011;576;48.418;10.074;2023-09-30T00:47:25;15.70;;;8.43;;
1174;SDS011;576;48.418;10.074;2023-09-30T00:49:53;14.87;;;8.63;;
1174;SDS011;576;48.418;10.074;2023-09-30T00:52:22;13.90;;;8.83;;
1174;SDS011;576;48.418;10.074;2023-09-30T00:54:50;12.97;;;8.80;;
1174;SDS011;576;48.418;10.074;2023-09-30T00:57:21;12.37;;;8.80;;
1174;SDS011;576;48.418;10.074;2023-09-30T00:59:49;11.80;;;8.87;;
1174;SDS011;576;48.418;10.074;2023-09-30T01:02:20;12.80;;;9.33;;
1174;SDS011;576;48.418;10.074;2023-09-30T01:04:50;13.27;;;9.10;;
1174;SDS011;576;48.418;10.074;2023-09-30T01:07:19;13.47;;;9.13;;
1174;SDS011;576;48.418;10.074;2023-09-30T01:09:48;14.80;;;8.50;;
1174;SDS011;576;48.418;10.074;2023-09-30T01:12:18;13.87;;;8.50;;
1174;SDS011;576;48.418;10.074;2023-09-30T01:14:46;15.07;;;8.70;;
1174;SDS011;576;48.418;10.074;2023-09-30T01:17:14;13.60;;;8.83;;
1174;SDS011;576;48.418;10.074;2023-09-30T01:19:44;15.57;;;9.83;;
1174;SDS011;576;48.418;10.074;2023-09-30T01:22:14;13.13;;;8.87;;
1174;SDS011;576;48.418;10.074;2023-09-30T01:24:43;13.37;;;8.23;;
1174;SDS011;576;48.418;10.074;2023-09-30T01:27:14;13.90;;;9.40;;
1174;SDS011;576;48.418;10.074;2023-09-30T01:29:45;17.53;;;8.83;;
1174;SDS011;576;48.418;10.074;2023-09-30T01:32:14;12.43;;;8.77;;
1174;SDS011;576;48.418;10.074;2023-09-30T01:34:43;11.30;;;8.17;;
1174;SDS011;576;48.418;10.074;2023-09-30T01:37:11;14.13;;;9.03;;
1174;SDS011;576;48.418;10.074;2023-09-30T01:39:41;16.10;;;9.23;;
1174;SDS011;576;48.418;10.074;2023-09-30T01:42:11;13.50;;;8.07;;
1174;SDS011;576;48.418;10.074;2023-09-30T01:44:39;11.67;;;7.97;;
1174;SDS011;576;48.418;10.074;2023-09-30T01:47:08;15.20;;;9.80;;
1174;SDS011;576;48.418;10.074;2023-09-30T01:49:36;15.90;;;9.37;;
1174;SDS011;576;48.418;10.074;2023-09-30T01:52:04;14.50;;;8.80;;
1174;SDS011;576;48.418;10.074;2023-09-30T01:54:35;12.80;;;8.03;;
1174;SDS011;576;48.418;10.074;2023-09-30T01:57:05;14.47;;;8.50;;
1174;SDS011;576;48.418;10.074;2023-09-30T01:59:33;15.60;;;8.23;;
1174;SDS011;576;48.418;10.074;2023-09-30T02:02:02;14.40;;;8.63;;
1174;SDS011;576;48.418;10.074;2023-09-30T02:04:30;12.90;;;8.50;;
1174;SDS011;576;48.418;10.074;2023-09-30T02:06:58;12.20;;;9.23;;
1174;SDS011;576;48.418;10.074;2023-09-30T02:09:26;14.93;;;9.70;;
1174;SDS011;576;48.418;10.074;2023-09-30T02:12:00;12.17;;;8.77;;
1174;SDS011;576;48.418;10.074;2023-09-30T02:14:29;14.03;;;8.77;;
1174;SDS011;576;48.418;10.074;2023-09-30T02:16:59;14.10;;;8.80;;
1174;SDS011;576;48.418;10.074;2023-09-30T02:19:27;12.77;;;7.33;;
1174;SDS011;576;48.418;10.074;2023-09-30T02:21:57;13.93;;;8.30;;
1174;SDS011;576;48.418;10.074;2023-09-30T02:24:25;13.67;;;8.47;;
1174;SDS011;576;48.418;10.074;2023-09-30T02:26:54;16.07;;;8.37;;
1174;SDS011;576;48.418;10.074;2023-09-30T02:29:22;15.33;;;8.97;;
1174;SDS011;576;48.418;10.074;2023-09-30T02:31:52;16.07;;;9.93;;
1174;SDS011;576;48.418;10.074;2023-09-30T02:34:22;13.33;;;9.73;;
1174;SDS011;576;48.418;10.074;2023-09-30T02:36:50;12.60;;;8.47;;
1174;SDS011;576;48.418;10.074;2023-09-30T02:39:21;13.87;;;9.23;;
1174;SDS011;576;48.418;10.074;2023-09-30T02:41:52;13.20;;;9.10;;
1174;SDS011;576;48.418;10.074;2023-09-30T02:44:21;11.77;;;7.93;;
1174;SDS011;576;48.418;10.074;2023-09-30T02:46:49;12.87;;;8.23;;
1174;SDS011;576;48.418;10.074;2023-09-30T02:49:18;14.03;;;8.57;;
1174;SDS011;576;48.418;10.074;2023-09-30T02:51:47;11.07;;;6.90;;
1174;SDS011;576;48.418;10.074;2023-09-30T02:54:15;14.40;;;9.00;;
1174;SDS011;576;48.418;10.074;2023-09-30T02:56:44;11.63;;;8.10;;
1174;SDS011;576;48.418;10.074;2023-09-30T02:59:13;13.03;;;8.43;;
1174;SDS011;576;48.418;10.074;2023-09-30T03:01:41;12.40;;;8.27;;
1174;SDS011;576;48.418;10.074;2023-09-30T03:04:10;13.00;;;7.93;;
1174;SDS011;576;48.418;10.074;2023-09-30T03:06:40;14.30;;;8.60;;
1174;SDS011;576;48.418;10.074;2023-09-30T03:09:11;10.53;;;7.10;;
1174;SDS011;576;48.418;10.074;2023-09-30T03:11:41;14.37;;;8.80;;
1174;SDS011;576;48.418;10.074;2023-09-30T03:14:11;13.73;;;8.23;;
1174;SDS011;576;48.418;10.074;2023-09-30T03:16:39;13.10;;;8.50;;
1174;SDS011;576;48.418;10.074;2023-09-30T03:19:09;12.30;;;7.93;;
1174;SDS011;576;48.418;10.074;2023-09-30T03:21:38;10.80;;;7.50;;
1174;SDS011;576;48.418;10.074;2023-09-30T03:24:08;13.70;;;8.27;;
1174;SDS011;576;48.418;10.074;2023-09-30T03:26:36;11.30;;;7.90;;
1174;SDS011;576;48.418;10.074;2023-09-30T03:29:08;11.30;;;8.80;;
1174;SDS011;576;48.418;10.074;2023-09-30T03:31:37;9.43;;;7.93;;
1174;SDS011;576;48.418;10.074;2023-09-30T03:34:05;12.97;;;8.60;;
1174;SDS011;576;48.418;10.074;2023-09-30T03:36:35;10.77;;;7.40;;
1174;SDS011;576;48.418;10.074;2023-09-30T03:39:03;15.23;;;9.40;;
1174;SDS011;576;48.418;10.074;2023-09-30T03:41:36;11.23;;;8.00;;
1174;SDS011;576;48.418;10.074;2023-09-30T03:44:04;12.60;;;7.47;;
1174;SDS011;576;48.418;10.074;2023-09-30T03:46:32;13.03;;;7.83;;
1174;SDS011;576;48.418;10.074;2023-09-30T03:49:01;13.00;;;8.37;;
1174;SDS011;576;48.418;10.074;2023-09-30T03:51:30;10.80;;;7.83;;
1174;SDS011;576;48.418;10.074;2023-09-30T03:53:58;15.00;;;7.90;;
1174;SDS011;576;48.418;10.074;2023-09-30T03:56:31;14.13;;;8.73;;
1174;SDS011;576;48.418;10.074;2023-09-30T03:59:01;14.10;;;8.57;;
1174;SDS011;576;48.418;10.074;2023-09-30T04:01:29;13.13;;;9.13;;
1174;SDS011;576;48.418;10.074;2023-09-30T04:03:58;10.37;;;7.17;;
1174;SDS011;576;48.418;10.074;2023-09-30T04:06:27;12.30;;;7.90;;
1174;SDS011;576;48.418;10.074;2023-09-30T04:08:55;12.27;;;7.60;;
1174;SDS011;576;48.418;10.074;2023-09-30T04:11:25;10.53;;;7.13;;
1174;SDS011;576;48.418;10.074;2023-09-30T04:13:53;13.30;;;8.07;;
1174;SDS011;576;48.418;10.074;2023-09-30T04:16:23;14.30;;;7.63;;
1174;SDS011;576;48.418;10.074;2023-09-30T04:18:55;10.03;;;7.27;;
1174;SDS011;576;48.418;10.074;2023-09-30T04:21:23;13.27;;;8.20;;
1174;SDS011;576;48.418;10.074;2023-09-30T04:23:53;11.50;;;7.53;;
1174;SDS011;576;48.418;10.074;2023-09-30T04:26:22;11.20;;;9.00;;
1174;SDS011;576;48.418;10.074;2023-09-30T04:28:51;11.80;;;7.93;;
1174;SDS011;576;48.418;10.074;2023-09-30T04:31:20;12.87;;;8.27;;
1174;SDS011;576;48.418;10.074;2023-09-30T04:33:51;12.20;;;7.30;;
1174;SDS011;576;48.418;10.074;2023-09-30T04:36:20;9.03;;;7.23;;
1174;SDS011;576;48.418;10.074;2023-09-30T04:38:49;12.37;;;7.43;;
1174;SDS011;576;48.418;10.074;2023-09-30T04:41:17;10.40;;;7.13;;
1174;SDS011;576;48.418;10.074;2023-09-30T04:43:46;13.53;;;8.43;;
1174;SDS011;576;48.418;10.074;2023-09-30T04:46:14;12.43;;;8.10;;
1174;SDS011;576;48.418;10.074;2023-09-30T04:48:47;13.40;;;7.80;;
1174;SDS011;576;48.418;10.074;2023-09-30T04:51:20;10.80;;;7.10;;
1174;SDS011;576;48.418;10.074;2023-09-30T04:53:48;17.67;;;8.83;;
1174;SDS011;576;48.418;10.074;2023-09-30T04:56:16;11.10;;;7.37;;
1174;SDS011;576;48.418;10.074;2023-09-30T04:58:44;11.43;;;8.30;;
1174;SDS011;576;48.418;10.074;2023-09-30T05:01:13;11.33;;;6.93;;
1174;SDS011;576;48.418;10.074;2023-09-30T05:03:41;9.70;;;6.70;;
1174;SDS011;576;48.418;10.074;2023-09-30T05:06:10;12.67;;;7.10;;
1174;SDS011;576;48.418;10.074;2023-09-30T05:08:40;14.20;;;7.30;;
1174;SDS011;576;48.418;10.074;2023-09-30T05:11:08;7.60;;;5.23;;
1174;SDS011;576;48.418;10.074;2023-09-30T05:13:36;10.43;;;7.20;;
1174;SDS011;576;48.418;10.074;2023-09-30T05:16:05;11.70;;;7.03;;
1174;SDS011;576;48.418;10.074;2023-09-30T05:18:34;13.77;;;6.60;;
1174;SDS011;576;48.418;10.074;2023-09-30T05:21:03;11.20;;;7.20;;
1174;SDS011;576;48.418;10.074;2023-09-30T05:23:33;12.60;;;7.07;;
1174;SDS011;576;48.418;10.074;2023-09-30T05:26:03;10.93;;;7.53;;
1174;SDS011;576;48.418;10.074;2023-09-30T05:28:32;9.97;;;7.37;;
1174;SDS011;576;48.418;10.074;2023-09-30T05:31:01;11.23;;;7.27;;
1174;SDS011;576;48.418;10.074;2023-09-30T05:33:29;9.93;;;7.30;;
1174;SDS011;576;48.418;10.074;2023-09-30T05:35:57;10.53;;;7.17;;
1174;SDS011;576;48.418;10.074;2023-09-30T05:38:26;11.80;;;6.90;;
1174;SDS011;576;48.418;10.074;2023-09-30T05:40:54;11.53;;;6.50;;
1174;SDS011;576;48.418;10.074;2023-09-30T05:43:26;9.57;;;6.80;;
1174;SDS011;576;48.418;10.074;2023-09-30T05:45:56;9.70;;;6.10;;
1174;SDS011;576;48.418;10.074;2023-09-30T05:48:27;8.47;;;6.23;;
1174;SDS011;576;48.418;10.074;2023-09-30T05:50:56;12.07;;;6.77;;
1174;SDS011;576;48.418;10.074;2023-09-30T05:53:24;13.43;;;7.37;;
1174;SDS011;576;48.418;10.074;2023-09-30T05:55:54;10.53;;;6.60;;
1174;SDS011;576;48.418;10.074;2023-09-30T05:58:23;11.40;;;6.83;;
1174;SDS011;576;48.418;10.074;2023-09-30T06:00:52;12.40;;;6.27;;
1174;SDS011;576;48.418;10.074;2023-09-30T06:03:21;11.97;;;7.60;;
1174;SDS011;576;48.418;10.074;2023-09-30T06:05:49;13.37;;;7.57;;
1174;SDS011;576;48.418;10.074;2023-09-30T06:08:18;8.63;;;5.90;;
1174;SDS011;576;48.418;10.074;2023-09-30T06:10:47;10.50;;;6.77;;
1174;SDS011;576;48.418;10.074;2023-09-30T06:13:15;10.50;;;5.63;;
1174;SDS011;576;48.418;10.074;2023-09-30T06:15:43;13.50;;;6.20;;
1174;SDS011;576;48.418;10.074;2023-09-30T06:18:14;12.20;;;6.47;;
1174;SDS011;576;48.418;10.074;2023-09-30T06:20:43;11.17;;;6.40;;
1174;SDS011;576;48.418;10.074;2023-09-30T06:23:11;10.77;;;6.80;;
1174;SDS011;576;48.418;10.074;2023-09-30T06:25:40;8.80;;;6.00;;
1174;SDS011;576;48.418;10.074;2023-09-30T06:28:09;10.83;;;6.57;;
1174;SDS011;576;48.418;10.074;2023-09-30T06:30:37;10.23;;;5.20;;
1174;SDS011;576;48.418;10.074;2023-09-30T06:33:09;8.23;;;5.73;;
1174;SDS011;576;48.418;10.074;2023-09-30T06:35:42;8.03;;;5.03;;
1174;SDS011;576;48.418;10.074;2023-09-30T06:38:16;11.50;;;7.07;;
1174;SDS011;576;48.418;10.074;2023-09-30T06:40:45;12.00;;;6.40;;
1174;SDS011;576;48.418;10.074;2023-09-30T06:43:14;9.63;;;6.27;;
1174;SDS011;576;48.418;10.074;2023-09-30T06:45:43;9.17;;;5.23;;
1174;SDS011;576;48.418;10.074;2023-09-30T06:48:13;10.70;;;6.73;;
1174;SDS011;576;48.418;10.074;2023-09-30T06:50:44;8.67;;;5.13;;
1174;SDS011;576;48.418;10.074;2023-09-30T06:53:15;8.50;;;5.97;;
1174;SDS011;576;48.418;10.074;2023-09-30T06:55:43;8.80;;;5.50;;
1174;SDS011;576;48.418;10.074;2023-09-30T06:58:11;8.27;;;5.40;;
1174;SDS011;576;48.418;10.074;2023-09-30T07:00:40;9.17;;;6.30;;
1174;SDS011;576;48.418;10.074;2023-09-30T07:03:11;7.20;;;5.80;;
1174;SDS011;576;48.418;10.074;2023-09-30T07:05:41;10.63;;;6.17;;
1174;SDS011;576;48.418;10.074;2023-09-30T07:08:11;8.30;;;5.53;;
1174;SDS011;576;48.418;10.074;2023-09-30T07:10:39;8.00;;;5.20;;
1174;SDS011;576;48.418;10.074;2023-09-30T07:13:08;8.70;;;5.50;;
1174;SDS011;576;48.418;10.074;2023-09-30T07:15:38;8.40;;;5.37;;
1174;SDS011;576;48.418;10.074;2023-09-30T07:18:06;8.43;;;4.90;;
1174;SDS011;576;48.418;10.074;2023-09-30T07:20:34;6.67;;;5.20;;
1174;SDS011;576;48.418;10.074;2023-09-30T07:23:03;7.43;;;5.30;;
1174;SDS011;576;48.418;10.074;2023-09-30T07:25:46;10.57;;;5.93;;
1174;SDS011;576;48.418;10.074;2023-09-30T07:28:15;10.63;;;5.80;;
1174;SDS011;576;48.418;10.074;2023-09-30T07:30:43;7.60;;;5.33;;
1174;SDS011;576;48.418;10.074;2023-09-30T07:33:12;8.50;;;5.50;;
1174;SDS011;576;48.418;10.074;2023-09-30T07:35:40;6.40;;;5.00;;
1174;SDS011;576;48.418;10.074;2023-09-30T07:38:08;7.97;;;4.80;;
1174;SDS011;576;48.418;10.074;2023-09-30T07:40:37;9.37;;;5.20;;
1174;SDS011;576;48.418;10.074;2023-09-30T07:43:06;7.43;;;5.13;;
1174;SDS011;576;48.418;10.074;2023-09-30T07:45:35;9.20;;;5.27;;
1174;SDS011;576;48.418;10.074;2023-09-30T07:48:04;8.47;;;5.47;;
1174;SDS011;576;48.418;10.074;2023-09-30T07:50:36;9.60;;;5.50;;
1174;SDS011;576;48.418;10.074;2023-09-30T07:53:04;9.07;;;4.77;;
1174;SDS011;576;48.418;10.074;2023-09-30T07:55:34;8.20;;;5.50;;
1174;SDS011;576;48.418;10.074;2023-09-30T07:58:07;7.70;;;5.37;;
1174;SDS011;576;48.418;10.074;2023-09-30T08:00:35;6.80;;;5.00;;
1174;SDS011;576;48.418;10.074;2023-09-30T08:03:03;7.70;;;4.93;;
1174;SDS011;576;48.418;10.074;2023-09-30T08:05:32;13.13;;;5.80;;
1174;SDS011;576;48.418;10.074;2023-09-30T08:08:01;9.83;;;5.63;;
1174;SDS011;576;48.418;10.074;2023-09-30T08:10:30;6.77;;;5.07;;
1174;SDS011;576;48.418;10.074;2023-09-30T08:12:59;7.93;;;5.20;;
1174;SDS011;576;48.418;10.074;2023-09-30T08:15:30;10.43;;;5.23;;
1174;SDS011;576;48.418;10.074;2023-09-30T08:17:58;12.20;;;6.03;;
1174;SDS011;576;48.418;10.074;2023-09-30T08:20:29;8.07;;;4.57;;
1174;SDS011;576;48.418;10.074;2023-09-30T08:22:57;7.40;;;4.20;;
1174;SDS011;576;48.418;10.074;2023-09-30T08:25:25;16.87;;;5.87;;
1174;SDS011;576;48.418;10.074;2023-09-30T08:27:53;5.20;;;4.40;;
1174;SDS011;576;48.418;10.074;2023-09-30T08:30:22;10.10;;;5.23;;
1174;SDS011;576;48.418;10.074;2023-09-30T08:32:51;8.23;;;4.70;;
1174;SDS011;576;48.418;10.074;2023-09-30T08:35:20;7.13;;;4.73;;
1174;SDS011;576;48.418;10.074;2023-09-30T08:37:48;8.73;;;5.07;;
1174;SDS011;576;48.418;10.074;2023-09-30T08:40:19;8.60;;;5.57;;
1174;SDS011;576;48.418;10.074;2023-09-30T08:42:48;7.23;;;4.47;;
1174;SDS011;576;48.418;10.074;2023-09-30T08:45:20;6.10;;;5.00;;
1174;SDS011;576;48.418;10.074;2023-09-30T08:47:48;6.07;;;4.27;;
1174;SDS011;576;48.418;10.074;2023-09-30T08:50:18;6.40;;;4.10;;
1174;SDS011;576;48.418;10.074;2023-09-30T08:52:48;6.83;;;4.53;;
1174;SDS011;576;48.418;10.074;2023-09-30T08:55:17;6.90;;;4.80;;
1174;SDS011;576;48.418;10.074;2023-09-30T08:57:47;5.90;;;4.60;;
1174;SDS011;576;48.418;10.074;2023-09-30T09:00:18;9.17;;;4.93;;
1174;SDS011;576;48.418;10.074;2023-09-30T09:02:47;12.43;;;4.73;;
1174;SDS011;576;48.418;10.074;2023-09-30T09:05:19;6.10;;;4.03;;
1174;SDS011;576;48.418;10.074;2023-09-30T09:07:47;5.70;;;3.57;;
1174;SDS011;576;48.418;10.074;2023-09-30T09:10:16;6.23;;;3.73;;
1174;SDS011;576;48.418;10.074;2023-09-30T09:12:45;4.73;;;3.60;;
1174;SDS011;576;48.418;10.074;2023-09-30T09:15:24;6.17;;;3.97;;
1174;SDS011;576;48.418;10.074;2023-09-30T09:17:53;8.20;;;4.63;;
1174;SDS011;576;48.418;10.074;2023-09-30T09:20:23;6.70;;;4.40;;
1174;SDS011;576;48.418;10.074;2023-09-30T09:22:53;9.73;;;3.57;;
1174;SDS011;576;48.418;10.074;2023-09-30T09:25:22;6.40;;;4.27;;
1174;SDS011;576;48.418;10.074;2023-09-30T09:27:51;7.03;;;4.20;;
1174;SDS011;576;48.418;10.074;2023-09-30T09:30:21;5.20;;;3.23;;
1174;SDS011;576;48.418;10.074;2023-09-30T09:32:55;6.03;;;3.90;;
1174;SDS011;576;48.418;10.074;2023-09-30T09:35:28;5.57;;;3.43;;
1174;SDS011;576;48.418;10.074;2023-09-30T09:37:59;4.57;;;3.90;;
1174;SDS011;576;48.418;10.074;2023-09-30T09:40:28;5.37;;;3.67;;
1174;SDS011;576;48.418;10.074;2023-09-30T09:42:59;7.47;;;4.00;;
1174;SDS011;576;48.418;10.074;2023-09-30T09:45:32;9.03;;;5.20;;
1174;SDS011;576;48.418;10.074;2023-09-30T09:48:02;4.00;;;3.50;;
1174;SDS011;576;48.418;10.074;2023-09-30T09:50:33;5.10;;;4.03;;
1174;SDS011;576;48.418;10.074;2023-09-30T09:53:04;6.70;;;3.90;;
1174;SDS011;576;48.418;10.074;2023-09-30T09:55:33;4.10;;;3.70;;
1174;SDS011;576;48.418;10.074;2023-09-30T09:58:05;5.20;;;4.07;;
1174;SDS011;576;48.418;10.074;2023-09-30T10:00:37;4.23;;;3.80;;
1174;SDS011;576;48.418;10.074;2023-09-30T10:03:06;4.07;;;3.43;;
1174;SDS011;576;48.418;10.074;2023-09-30T10:05:36;5.47;;;3.80;;
1174;SDS011;576;48.418;10.074;2023-09-30T10:08:07;4.37;;;3.80;;
1174;SDS011;576;48.418;10.074;2023-09-30T10:10:40;4.40;;;3.40;;
1174;SDS011;576;48.418;10.074;2023-09-30T10:13:09;4.43;;;3.40;;
1174;SDS011;576;48.418;10.074;2023-09-30T10:19:15;3.90;;;3.40;;
1174;SDS011;576;48.418;10.074;2023-09-30T10:24:53;4.50;;;3.07;;
1174;SDS011;576;48.418;10.074;2023-09-30T10:30:14;8.50;;;4.00;;
1174;SDS011;576;48.418;10.074;2023-09-30T10:35:43;5.03;;;3.50;;
1174;SDS011;576;48.418;10.074;2023-09-30T10:41:08;4.67;;;3.30;;
1174;SDS011;576;48.418;10.074;2023-09-30T10:43:39;8.40;;;2.80;;
1174;SDS011;576;48.418;10.074;2023-09-30T10:49:16;6.40;;;4.00;;
1174;SDS011;576;48.418;10.074;2023-09-30T10:51:58;8.13;;;4.20;;
1174;SDS011;576;48.418;10.074;2023-09-30T10:54:29;6.17;;;3.40;;
1174;SDS011;576;48.418;10.074;2023-09-30T10:57:00;4.53;;;3.00;;
1174;SDS011;576;48.418;10.074;2023-09-30T10:59:31;6.90;;;4.00;;
1174;SDS011;576;48.418;10.074;2023-09-30T11:02:01;6.83;;;3.57;;
1174;SDS011;576;48.418;10.074;2023-09-30T11:04:31;5.67;;;3.80;;
1174;SDS011;576;48.418;10.074;2023-09-30T11:07:16;4.90;;;3.77;;
1174;SDS011;576;48.418;10.074;2023-09-30T11:09:50;3.60;;;3.20;;
1174;SDS011;576;48.418;10.074;2023-09-30T11:12:22;5.43;;;3.97;;
1174;SDS011;576;48.418;10.074;2023-09-30T11:14:58;6.90;;;3.93;;
1174;SDS011;576;48.418;10.074;2023-09-30T11:17:28;4.80;;;3.60;;
1174;SDS011;576;48.418;10.074;2023-09-30T11:19:56;5.70;;;3.50;;
1174;SDS011;576;48.418;10.074;2023-09-30T11:22:24;4.00;;;3.60;;
1174;SDS011;576;48.418;10.074;2023-09-30T11:24:55;3.80;;;3.40;;
1174;SDS011;576;48.418;10.074;2023-09-30T11:27:23;5.00;;;3.73;;
1174;SDS011;576;48.418;10.074;2023-09-30T11:29:53;6.90;;;3.70;;
1174;SDS011;576;48.418;10.074;2023-09-30T11:32:24;6.03;;;3.13;;
1174;SDS011;576;48.418;10.074;2023-09-30T11:34:54;6.70;;;3.63;;
1174;SDS011;576;48.418;10.074;2023-09-30T11:37:23;5.30;;;3.13;;
1174;SDS011;576;48.418;10.074;2023-09-30T11:39:52;6.40;;;3.63;;
1174;SDS011;576;48.418;10.074;2023-09-30T11:42:22;4.63;;;3.27;;
1174;SDS011;576;48.418;10.074;2023-09-30T11:44:50;4.70;;;3.90;;
1174;SDS011;576;48.418;10.074;2023-09-30T11:47:27;5.90;;;3.57;;
1174;SDS011;576;48.418;10.074;2023-09-30T11:49:57;4.57;;;3.20;;
1174;SDS011;576;48.418;10.074;2023-09-30T11:52:25;5.03;;;3.70;;
1174;SDS011;576;48.418;10.074;2023-09-30T11:54:54;7.30;;;3.70;;
1174;SDS011;576;48.418;10.074;2023-09-30T11:57:25;3.43;;;3.10;;
1174;SDS011;576;48.418;10.074;2023-09-30T11:59:53;5.93;;;3.80;;
1174;SDS011;576;48.418;10.074;2023-09-30T12:02:22;5.20;;;3.30;;
1174;SDS011;576;48.418;10.074;2023-09-30T12:04:50;4.43;;;3.10;;
1174;SDS011;576;48.418;10.074;2023-09-30T12:07:19;6.53;;;3.17;;
1174;SDS011;576;48.418;10.074;2023-09-30T12:09:48;4.40;;;3.30;;
1174;SDS011;576;48.418;10.074;2023-09-30T12:12:16;11.87;;;3.67;;
1174;SDS011;576;48.418;10.074;2023-09-30T12:14:46;6.50;;;3.83;;
1174;SDS011;576;48.418;10.074;2023-09-30T12:17:17;5.67;;;3.70;;
1174;SDS011;576;48.418;10.074;2023-09-30T12:19:48;6.07;;;4.40;;
1174;SDS011;576;48.418;10.074;2023-09-30T12:22:16;5.03;;;4.50;;
1174;SDS011;576;48.418;10.074;2023-09-30T12:24:44;6.93;;;4.43;;
1174;SDS011;576;48.418;10.074;2023-09-30T12:27:13;7.50;;;4.90;;
1174;SDS011;576;48.418;10.074;2023-09-30T12:29:43;6.80;;;4.93;;
1174;SDS011;576;48.418;10.074;2023-09-30T12:32:16;6.47;;;4.60;;
1174;SDS011;576;48.418;10.074;2023-09-30T12:34:45;7.07;;;5.43;;
1174;SDS011;576;48.418;10.074;2023-09-30T12:37:13;8.63;;;5.37;;
1174;SDS011;576;48.418;10.074;2023-09-30T12:39:41;7.70;;;4.60;;
1174;SDS011;576;48.418;10.074;2023-09-30T12:42:11;7.43;;;5.43;;
1174;SDS011;576;48.418;10.074;2023-09-30T12:44:41;10.07;;;6.53;;
1174;SDS011;576;48.418;10.074;2023-09-30T12:47:09;7.70;;;4.80;;
1174;SDS011;576;48.418;10.074;2023-09-30T12:49:39;7.20;;;5.07;;
1174;SDS011;576;48.418;10.074;2023-09-30T12:52:07;7.97;;;5.13;;
1174;SDS011;576;48.418;10.074;2023-09-30T12:54:35;6.63;;;4.90;;
1174;SDS011;576;48.418;10.074;2023-09-30T12:57:04;6.13;;;5.17;;
1174;SDS011;576;48.418;10.074;2023-09-30T12:59:33;6.70;;;4.60;;
1174;SDS011;576;48.418;10.074;2023-09-30T13:02:02;7.17;;;4.80;;
1174;SDS011;576;48.418;10.074;2023-09-30T13:04:31;6.10;;;5.20;;
1174;SDS011;576;48.418;10.074;2023-09-30T13:07:01;6.60;;;5.13;;
1174;SDS011;576;48.418;10.074;2023-09-30T13:09:29;5.07;;;4.60;;
1174;SDS011;576;48.418;10.074;2023-09-30T13:11:58;7.23;;;4.77;;
1174;SDS011;576;48.418;10.074;2023-09-30T13:14:26;7.30;;;5.03;;
1174;SDS011;576;48.418;10.074;2023-09-30T13:16:55;6.73;;;5.13;;
1174;SDS011;576;48.418;10.074;2023-09-30T13:19:25;6.57;;;5.60;;
1174;SDS011;576;48.418;10.074;2023-09-30T13:21:54;7.70;;;4.90;;
1174;SDS011;576;48.418;10.074;2023-09-30T13:24:25;6.20;;;5.23;;
1174;SDS011;576;48.418;10.074;2023-09-30T13:26:53;6.73;;;4.80;;
1174;SDS011;576;48.418;10.074;2023-09-30T13:29:21;7.20;;;5.50;;
1174;SDS011;576;48.418;10.074;2023-09-30T13:31:50;6.50;;;4.80;;
1174;SDS011;576;48.418;10.074;2023-09-30T13:34:19;7.63;;;5.17;;
1174;SDS011;576;48.418;10.074;2023-09-30T13:36:50;4.53;;;3.77;;
1174;SDS011;576;48.418;10.074;2023-09-30T13:39:19;7.27;;;4.80;;
1174;SDS011;576;48.418;10.074;2023-09-30T13:41:49;8.33;;;5.50;;
1174;SDS011;576;48.418;10.074;2023-09-30T13:44:22;7.10;;;5.00;;
1174;SDS011;576;48.418;10.074;2023-09-30T13:46:50;5.60;;;5.10;;
1174;SDS011;576;48.418;10.074;2023-09-30T13:49:18;7.80;;;5.00;;
1174;SDS011;576;48.418;10.074;2023-09-30T13:51:47;8.93;;;4.80;;
1174;SDS011;576;48.418;10.074;2023-09-30T13:54:15;6.00;;;4.43;;
1174;SDS011;576;48.418;10.074;2023-09-30T13:56:43;7.10;;;5.40;;
1174;SDS011;576;48.418;10.074;2023-09-30T13:59:13;6.30;;;4.53;;
1174;SDS011;576;48.418;10.074;2023-09-30T14:01:41;5.63;;;4.70;;
1174;SDS011;576;48.418;10.074;2023-09-30T14:04:10;6.77;;;5.43;;
1174;SDS011;576;48.418;10.074;2023-09-30T14:06:39;7.30;;;5.20;;
1174;SDS011;576;48.418;10.074;2023-09-30T14:09:07;8.00;;;5.93;;
1174;SDS011;576;48.418;10.074;2023-09-30T14:11:58;8.80;;;5.10;;
1174;SDS011;576;48.418;10.074;2023-09-30T14:14:28;7.57;;;4.90;;
1174;SDS011;576;48.418;10.074;2023-09-30T14:16:58;6.77;;;4.83;;
1174;SDS011;576;48.418;10.074;2023-09-30T14:19:26;7.13;;;4.70;;
1174;SDS011;576;48.418;10.074;2023-09-30T14:21:55;6.50;;;4.90;;
1174;SDS011;576;48.418;10.074;2023-09-30T14:24:24;6.70;;;4.87;;
1174;SDS011;576;48.418;10.074;2023-09-30T14:26:53;5.40;;;4.87;;
1174;SDS011;576;48.418;10.074;2023-09-30T14:29:22;5.80;;;4.70;;
1174;SDS011;576;48.418;10.074;2023-09-30T14:31:52;6.57;;;5.10;;
1174;SDS011;576;48.418;10.074;2023-09-30T14:34:21;9.10;;;6.03;;
1174;SDS011;576;48.418;10.074;2023-09-30T14:36:49;8.80;;;5.20;;
1174;SDS011;576;48.418;10.074;2023-09-30T14:39:17;6.40;;;4.97;;
1174;SDS011;576;48.418;10.074;2023-09-30T14:41:46;5.27;;;4.77;;
1174;SDS011;576;48.418;10.074;2023-09-30T14:44:14;8.57;;;4.83;;
1174;SDS011;576;48.418;10.074;2023-09-30T14:46:43;7.80;;;5.33;;
1174;SDS011;576;48.418;10.074;2023-09-30T14:49:13;6.67;;;3.97;;
1174;SDS011;576;48.418;10.074;2023-09-30T14:51:42;6.10;;;4.53;;
1174;SDS011;576;48.418;10.074;2023-09-30T14:54:10;4.43;;;3.97;;
1174;SDS011;576;48.418;10.074;2023-09-30T14:56:39;6.40;;;4.67;;
1174;SDS011;576;48.418;10.074;2023-09-30T14:59:07;5.97;;;4.47;;
1174;SDS011;576;48.418;10.074;2023-09-30T15:01:36;6.20;;;5.30;;
1174;SDS011;576;48.418;10.074;2023-09-30T15:04:05;7.20;;;4.70;;
1174;SDS011;576;48.418;10.074;2023-09-30T15:06:37;8.67;;;4.50;;
1174;SDS011;576;48.418;10.074;2023-09-30T15:09:06;6.50;;;5.07;;
1174;SDS011;576;48.418;10.074;2023-09-30T15:11:36;8.57;;;5.30;;
1174;SDS011;576;48.418;10.074;2023-09-30T15:14:04;6.17;;;4.67;;
1174;SDS011;576;48.418;10.074;2023-09-30T15:16:33;6.97;;;4.50;;
1174;SDS011;576;48.418;10.074;2023-09-30T15:19:02;6.33;;;4.03;;
1174;SDS011;576;48.418;10.074;2023-09-30T15:21:31;5.30;;;4.40;;
1174;SDS011;576;48.418;10.074;2023-09-30T15:24:01;6.40;;;4.77;;
1174;SDS011;576;48.418;10.074;2023-09-30T15:26:29;6.40;;;5.13;;
1174;SDS011;576;48.418;10.074;2023-09-30T15:28:58;4.50;;;4.10;;
1174;SDS011;576;48.418;10.074;2023-09-30T15:31:27;8.03;;;4.87;;
1174;SDS011;576;48.418;10.074;2023-09-30T15:33:56;6.13;;;5.13;;
1174;SDS011;576;48.418;10.074;2023-09-30T15:36:25;5.87;;;4.60;;
1174;SDS011;576;48.418;10.074;2023-09-30T15:38:53;6.07;;;4.60;;
1174;SDS011;576;48.418;10.074;2023-09-30T15:41:23;5.27;;;4.60;;